Time;durP1;ratioP1;P1;durP2;ratioP2;P2;SDS_P1;SDS_P2;PMS_P1;PMS_P2;Temp;Humidity;BMP_temperature;BMP_pressure;BME280_temperature;BME280_humidity;BME280_pressure;Samples;Min_cycle;Max_cycle;Signal;HPM_P1;HPM_P2
2022/08/21 00:00:48;;;;;;;6.67;1.30;;;22.00;78.30;;;;;;5076701;28;20270;-68
2022/08/21 00:03:16;;;;;;;6.80;0.80;;;21.80;70.80;;;;;;5092771;28;20193;-68
2022/08/21 00:05:49;;;;;;;4.23;1.20;;;21.60;72.80;;;;;;5093168;28;20724;-70
2022/08/21 00:08:19;;;;;;;4.27;1.03;;;21.30;67.10;;;;;;5085259;28;20180;-67
2022/08/21 00:10:47;;;;;;;2.30;0.90;;;21.50;70.30;;;;;;5092035;28;20177;-67
2022/08/21 00:13:15;;;;;;;4.03;0.87;;;21.30;69.70;;;;;;5072661;28;20179;-67
2022/08/21 00:15:44;;;;;;;5.83;0.80;;;21.90;67.80;;;;;;5072474;28;20227;-67
2022/08/21 00:18:12;;;;;;;2.57;0.70;;;21.10;69.00;;;;;;5072560;28;20168;-68
2022/08/21 00:20:40;;;;;;;2.20;0.90;;;20.90;68.40;;;;;;5088227;28;20236;-67
2022/08/21 00:23:08;;;;;;;2.00;1.00;;;21.50;70.50;;;;;;5092804;28;20542;-68
2022/08/21 00:25:36;;;;;;;2.53;0.73;;;22.10;64.00;;;;;;5092830;28;20178;-67
2022/08/21 00:28:06;;;;;;;6.23;1.03;;;22.30;71.40;;;;;;5092414;28;20182;-70
2022/08/21 00:30:34;;;;;;;2.10;0.73;;;22.70;70.00;;;;;;5059488;28;20184;-67
2022/08/21 00:33:04;;;;;;;3.50;0.80;;;22.60;62.20;;;;;;5073693;28;20266;-68
2022/08/21 00:35:36;;;;;;;5.57;0.67;;;22.30;61.70;;;;;;5092307;28;20248;-68
2022/08/21 00:38:07;;;;;;;2.57;0.60;;;22.00;60.20;;;;;;5092399;28;20171;-69
2022/08/21 00:40:38;;;;;;;2.33;1.10;;;21.50;68.30;;;;;;5092252;28;20183;-70
2022/08/21 00:43:09;;;;;;;2.57;0.70;;;22.40;64.20;;;;;;5089961;28;20529;-68
2022/08/21 00:45:37;;;;;;;1.60;0.60;;;22.60;65.40;;;;;;5072352;28;20212;-70
2022/08/21 00:48:05;;;;;;;2.40;0.70;;;22.70;58.70;;;;;;5072209;28;20183;-71
2022/08/21 00:50:35;;;;;;;4.20;0.83;;;21.90;57.70;;;;;;5054216;28;20206;-70
2022/08/21 00:53:06;;;;;;;2.70;0.53;;;22.00;66.80;;;;;;5073066;28;20176;-69
2022/08/21 00:55:35;;;;;;;2.63;0.70;;;22.30;58.10;;;;;;5072032;28;20183;-70
2022/08/21 00:58:04;;;;;;;2.77;0.73;;;22.90;57.40;;;;;;5071910;28;20168;-69
2022/08/21 01:00:36;;;;;;;3.70;0.73;;;23.40;60.10;;;;;;5055411;28;20595;-70
2022/08/21 01:03:08;;;;;;;1.93;0.40;;;23.20;56.80;;;;;;5077443;28;20182;-71
2022/08/21 01:05:36;;;;;;;5.17;0.90;;;23.40;55.40;;;;;;5093073;28;20312;-71
2022/08/21 01:08:05;;;;;;;2.87;0.83;;;23.50;53.40;;;;;;5092113;28;20211;-71
2022/08/21 01:10:33;;;;;;;2.07;0.70;;;23.10;56.50;;;;;;5072119;28;20191;-70
2022/08/21 01:13:01;;;;;;;1.77;0.60;;;23.10;52.60;;;;;;5091971;28;20175;-71
2022/08/21 01:15:33;;;;;;;2.17;0.50;;;23.00;56.40;;;;;;5092051;28;20183;-75
2022/08/21 01:18:03;;;;;;;1.23;0.60;;;23.00;52.20;;;;;;5072589;28;20266;-70
2022/08/21 01:20:31;;;;;;;2.57;0.80;;;23.20;57.70;;;;;;5083933;28;20205;-70
2022/08/21 01:22:58;;;;;;;2.33;0.80;;;23.70;59.10;;;;;;5091632;28;20171;-71
2022/08/21 01:25:25;;;;;;;3.40;0.90;;;24.00;59.60;;;;;;5074778;28;20205;-72
2022/08/21 01:27:53;;;;;;;3.63;0.80;;;24.00;53.40;;;;;;5071770;28;20255;-70
2022/08/21 01:30:27;;;;;;;2.70;0.60;;;24.10;52.30;;;;;;5082565;28;20171;-68
2022/08/21 01:32:55;;;;;;;4.00;0.90;;;24.20;52.60;;;;;;5091681;28;20304;-70
2022/08/21 01:35:23;;;;;;;2.53;0.70;;;24.40;55.30;;;;;;5091737;28;20271;-69
2022/08/21 01:37:51;;;;;;;3.00;0.70;;;24.10;52.00;;;;;;5091708;28;20167;-69
2022/08/21 01:40:19;;;;;;;1.33;0.83;;;23.60;53.80;;;;;;5081027;28;20649;-74
2022/08/21 01:42:48;;;;;;;4.07;0.80;;;22.80;53.50;;;;;;5074611;28;20612;-72
2022/08/21 01:45:16;;;;;;;2.47;0.73;;;22.00;54.60;;;;;;5090765;28;20194;-70
2022/08/21 01:47:45;;;;;;;2.50;0.70;;;22.00;54.30;;;;;;5073451;28;20192;-70
2022/08/21 01:50:16;;;;;;;2.47;0.70;;;22.10;56.10;;;;;;5091617;28;20206;-69
2022/08/21 01:52:44;;;;;;;2.90;1.20;;;22.50;54.40;;;;;;5091630;28;20187;-69
2022/08/21 01:55:13;;;;;;;1.47;0.70;;;22.80;55.60;;;;;;5079079;28;20682;-71
2022/08/21 01:57:41;;;;;;;5.67;1.10;;;23.10;54.40;;;;;;5073369;28;20187;-68
2022/08/21 02:00:12;;;;;;;1.43;0.70;;;23.00;56.60;;;;;;5073388;28;20232;-69
2022/08/21 02:02:41;;;;;;;2.40;0.70;;;23.00;56.20;;;;;;5071393;28;20208;-73
2022/08/21 02:05:11;;;;;;;1.70;0.50;;;23.40;55.20;;;;;;5083826;28;20179;-71
2022/08/21 02:07:47;;;;;;;4.97;1.00;;;23.50;54.80;;;;;;5089759;28;20528;-67
2022/08/21 02:10:18;;;;;;;6.20;0.80;;;23.70;56.40;;;;;;5071358;28;20172;-69
2022/08/21 02:12:46;;;;;;;4.50;0.73;;;23.90;56.70;;;;;;5071134;28;20180;-71
2022/08/21 02:15:18;;;;;;;1.67;0.87;;;23.70;47.50;;;;;;5083823;28;20222;-70
2022/08/21 02:17:52;;;;;;;5.50;1.30;;;23.50;50.00;;;;;;5095233;28;20178;-70
2022/08/21 02:20:24;;;;;;;1.43;0.63;;;22.70;52.10;;;;;;5077188;28;20648;-73
2022/08/21 02:22:52;;;;;;;1.23;0.80;;;23.20;55.80;;;;;;5095258;28;20171;-69
2022/08/21 02:25:22;;;;;;;2.67;0.73;;;23.10;52.10;;;;;;5085109;28;20622;-69
2022/08/21 02:27:51;;;;;;;1.90;0.63;;;23.10;48.50;;;;;;5074776;28;20657;-70
2022/08/21 02:30:24;;;;;;;2.50;0.63;;;23.30;50.20;;;;;;5074036;28;20194;-70
2022/08/21 02:32:52;;;;;;;2.60;0.70;;;23.40;49.30;;;;;;5079131;28;20523;-73
2022/08/21 02:35:20;;;;;;;2.90;0.80;;;23.20;50.50;;;;;;5093236;28;20217;-70
2022/08/21 02:37:53;;;;;;;3.30;0.77;;;22.90;53.80;;;;;;5082901;28;20283;-69
2022/08/21 02:40:26;;;;;;;1.13;0.70;;;22.80;52.90;;;;;;5082240;28;20226;-73
2022/08/21 02:42:53;;;;;;;1.83;1.00;;;22.70;59.30;;;;;;5086506;28;20594;-71
2022/08/21 02:45:21;;;;;;;4.13;0.90;;;22.70;50.40;;;;;;5056269;28;20184;-71
2022/08/21 02:47:53;;;;;;;3.00;0.90;;;22.30;51.50;;;;;;5075564;28;20184;-71
2022/08/21 02:50:30;;;;;;;3.07;1.00;;;22.30;54.00;;;;;;5085837;28;20175;-72
2022/08/21 02:52:58;;;;;;;4.10;0.90;;;22.40;50.40;;;;;;5074625;28;20172;-71
2022/08/21 02:55:31;;;;;;;2.53;0.70;;;22.70;56.00;;;;;;5085661;28;20676;-72
2022/08/21 02:58:00;;;;;;;2.43;0.67;;;23.40;56.60;;;;;;5094024;28;20178;-72
2022/08/21 03:00:33;;;;;;;1.93;0.73;;;23.50;49.90;;;;;;5094665;28;20266;-72
2022/08/21 03:03:01;;;;;;;3.00;0.70;;;23.60;49.00;;;;;;5076451;28;20183;-71
2022/08/21 03:05:32;;;;;;;4.67;0.60;;;23.40;48.00;;;;;;5078924;28;20296;-72
2022/08/21 03:08:03;;;;;;;2.30;1.10;;;23.10;48.40;;;;;;5093824;28;20186;-72
2022/08/21 03:10:31;;;;;;;1.53;0.80;;;22.60;48.00;;;;;;5094297;28;20183;-72
2022/08/21 03:12:58;;;;;;;2.47;1.00;;;22.30;49.30;;;;;;5094489;28;20597;-72
2022/08/21 03:15:26;;;;;;;3.87;0.93;;;22.40;50.60;;;;;;5093642;28;20589;-72
2022/08/21 03:17:54;;;;;;;3.77;0.80;;;22.70;52.20;;;;;;5078972;28;20180;-72
2022/08/21 03:20:23;;;;;;;1.83;0.90;;;22.20;50.20;;;;;;5073989;28;20179;-72
2022/08/21 03:22:54;;;;;;;2.43;0.80;;;22.10;50.70;;;;;;5075118;28;20641;-72
2022/08/21 03:25:23;;;;;;;5.10;1.47;;;22.10;52.30;;;;;;5094054;28;20187;-72
2022/08/21 03:27:51;;;;;;;2.97;1.10;;;22.10;52.30;;;;;;5080419;28;20187;-72
2022/08/21 03:30:19;;;;;;;1.10;0.80;;;22.00;53.30;;;;;;5073756;28;20188;-72
2022/08/21 03:32:48;;;;;;;1.47;0.70;;;22.00;51.80;;;;;;5073998;28;20180;-73
2022/08/21 03:35:16;;;;;;;2.07;0.97;;;21.80;51.10;;;;;;5073571;28;20216;-72
2022/08/21 03:37:44;;;;;;;2.90;1.13;;;22.50;55.60;;;;;;5074617;28;20190;-72
2022/08/21 03:40:17;;;;;;;2.97;0.90;;;22.40;49.80;;;;;;5073445;28;20186;-73
2022/08/21 03:42:48;;;;;;;1.37;0.80;;;22.50;57.40;;;;;;5073633;28;20211;-72
2022/08/21 03:45:18;;;;;;;3.23;1.10;;;22.10;53.80;;;;;;5056235;28;20595;-72
2022/08/21 03:48:00;;;;;;;1.60;0.87;;;22.30;54.10;;;;;;5066652;28;20640;-72
2022/08/21 03:50:31;;;;;;;2.93;1.00;;;22.40;54.90;;;;;;5076721;28;20189;-72
2022/08/21 03:53:00;;;;;;;2.23;1.27;;;22.10;53.70;;;;;;5084155;28;20232;-72
2022/08/21 03:55:31;;;;;;;1.97;0.97;;;22.20;52.80;;;;;;5090646;28;20268;-73
2022/08/21 03:58:00;;;;;;;7.13;1.07;;;22.30;52.30;;;;;;5076270;28;20621;-73
2022/08/21 04:00:31;;;;;;;2.63;0.83;;;22.30;53.80;;;;;;5073073;28;20191;-71
2022/08/21 04:02:58;;;;;;;4.30;1.37;;;22.00;54.60;;;;;;5073372;28;20314;-71
2022/08/21 04:05:29;;;;;;;3.77;0.87;;;21.60;65.20;;;;;;5074280;28;20188;-73
2022/08/21 04:08:04;;;;;;;1.47;0.90;;;21.80;56.00;;;;;;5073020;28;20184;-72
2022/08/21 04:10:35;;;;;;;1.37;0.70;;;21.70;57.30;;;;;;5073051;28;20269;-73
2022/08/21 04:13:06;;;;;;;4.00;1.00;;;21.80;55.60;;;;;;5073035;28;20180;-71
2022/08/21 04:15:35;;;;;;;2.63;0.87;;;21.90;57.20;;;;;;5076231;28;20215;-73
2022/08/21 04:18:03;;;;;;;1.17;0.80;;;21.60;53.90;;;;;;5074503;28;20178;-71
2022/08/21 04:20:36;;;;;;;3.27;0.90;;;21.80;54.70;;;;;;5081332;28;20175;-72
2022/08/21 04:23:07;;;;;;;1.60;0.80;;;21.40;55.20;;;;;;5092996;28;20199;-73
2022/08/21 04:25:36;;;;;;;3.73;1.20;;;21.30;54.20;;;;;;5092750;28;20264;-73
2022/08/21 04:28:04;;;;;;;4.43;1.10;;;21.70;54.80;;;;;;5057945;28;20278;-71
2022/08/21 04:30:33;;;;;;;8.07;1.00;;;21.60;55.70;;;;;;5055120;28;20188;-73
2022/08/21 04:33:01;;;;;;;2.27;0.93;;;22.00;58.20;;;;;;5071705;28;20192;-73
2022/08/21 04:35:29;;;;;;;2.70;1.17;;;22.10;53.10;;;;;;5072616;28;20223;-72
2022/08/21 04:37:57;;;;;;;2.37;0.87;;;22.50;58.90;;;;;;5072133;28;20577;-73
2022/08/21 04:40:27;;;;;;;3.70;0.93;;;22.70;55.00;;;;;;5071546;28;20187;-72
2022/08/21 04:43:05;;;;;;;3.50;0.90;;;22.50;52.10;;;;;;5072303;28;20195;-72
2022/08/21 04:45:35;;;;;;;4.57;1.00;;;22.50;54.20;;;;;;5072475;28;20176;-71
2022/08/21 04:48:04;;;;;;;5.37;0.93;;;22.60;53.50;;;;;;5072130;28;20182;-71
2022/08/21 04:50:43;;;;;;;2.13;0.90;;;21.90;52.30;;;;;;5071997;28;20201;-72
2022/08/21 04:53:19;;;;;;;7.87;2.37;;;21.50;53.50;;;;;;5079287;28;20179;-70
2022/08/21 04:55:47;;;;;;;3.53;1.40;;;21.10;56.10;;;;;;5092517;28;20201;-72
2022/08/21 04:58:21;;;;;;;2.43;1.00;;;20.60;57.60;;;;;;5093731;28;20193;-72
2022/08/21 05:00:58;;;;;;;5.57;1.13;;;20.70;60.20;;;;;;5058142;28;20190;-72
2022/08/21 05:03:26;;;;;;;2.33;1.03;;;20.70;64.60;;;;;;5056575;28;20288;-71
2022/08/21 05:05:53;;;;;;;3.53;1.33;;;21.00;65.80;;;;;;5073551;28;20240;-72
2022/08/21 05:08:23;;;;;;;26.87;14.27;;;20.90;65.50;;;;;;5072894;28;20600;-71
2022/08/21 05:10:51;;;;;;;6.30;3.80;;;20.50;62.60;;;;;;5091239;28;20663;-73
2022/08/21 05:13:22;;;;;;;16.73;11.87;;;20.50;67.30;;;;;;5072869;28;20235;-72
2022/08/21 05:15:50;;;;;;;26.40;19.00;;;20.30;65.70;;;;;;5072179;28;20239;-73
2022/08/21 05:18:23;;;;;;;11.60;7.73;;;20.00;67.60;;;;;;5073499;28;20226;-72
2022/08/21 05:20:50;;;;;;;3.90;1.03;;;20.10;75.40;;;;;;5075014;28;20180;-72
2022/08/21 05:23:24;;;;;;;1.63;1.00;;;20.40;81.40;;;;;;5092005;28;20191;-71
2022/08/21 05:25:53;;;;;;;1.83;1.20;;;20.60;77.10;;;;;;5092138;28;20175;-73
2022/08/21 05:28:21;;;;;;;2.87;1.10;;;20.60;71.60;;;;;;5073636;28;20629;-73
2022/08/21 05:30:48;;;;;;;6.70;2.90;;;20.70;75.00;;;;;;5090185;28;20291;-72
2022/08/21 05:33:16;;;;;;;2.13;1.03;;;20.60;72.40;;;;;;5091605;28;20179;-72
2022/08/21 05:35:44;;;;;;;4.33;1.10;;;20.60;77.10;;;;;;5091950;28;20243;-71
2022/08/21 05:38:12;;;;;;;3.47;1.10;;;20.60;72.20;;;;;;5090929;28;20239;-71
2022/08/21 05:40:43;;;;;;;3.57;1.50;;;20.40;81.50;;;;;;5055697;28;20211;-72
2022/08/21 05:43:11;;;;;;;3.00;0.93;;;20.30;78.60;;;;;;5075592;28;20664;-72
2022/08/21 05:45:42;;;;;;;2.43;0.73;;;20.20;83.10;;;;;;5091937;28;20187;-73
2022/08/21 05:48:23;;;;;;;1.60;0.90;;;20.30;79.50;;;;;;5091776;28;20680;-70
2022/08/21 05:50:52;;;;;;;2.00;1.10;;;19.80;80.00;;;;;;5074450;28;20191;-71
2022/08/21 05:53:21;;;;;;;2.03;1.30;;;19.50;83.40;;;;;;5075461;28;20182;-72
2022/08/21 05:55:49;;;;;;;3.23;1.70;;;19.50;91.50;;;;;;5075588;28;20182;-72
2022/08/21 05:58:22;;;;;;;2.90;1.40;;;19.50;88.10;;;;;;5075493;28;20195;-72
2022/08/21 06:00:51;;;;;;;1.80;0.80;;;19.50;88.70;;;;;;5080041;28;20252;-71
2022/08/21 06:03:25;;;;;;;1.93;1.00;;;19.30;89.60;;;;;;5075510;28;20183;-72
2022/08/21 06:05:53;;;;;;;2.27;0.90;;;19.40;90.10;;;;;;5075468;28;20184;-72
2022/08/21 06:08:24;;;;;;;2.70;1.10;;;19.20;91.90;;;;;;5078270;28;20193;-71
2022/08/21 06:10:53;;;;;;;2.77;1.20;;;19.00;94.40;;;;;;5077806;28;20680;-72
2022/08/21 06:13:22;;;;;;;2.37;1.20;;;18.90;95.50;;;;;;5095517;28;20177;-71
2022/08/21 06:15:50;;;;;;;4.63;1.27;;;18.80;96.40;;;;;;5065639;28;20199;-73
2022/08/21 06:18:17;;;;;;;2.67;1.30;;;18.60;97.40;;;;;;5076228;28;20176;-71
2022/08/21 06:20:50;;;;;;;3.00;0.90;;;18.50;97.90;;;;;;5095321;28;20538;-72
2022/08/21 06:23:20;;;;;;;2.57;1.30;;;18.30;99.80;;;;;;5095254;28;20266;-70
2022/08/21 06:25:48;;;;;;;6.33;1.20;;;18.20;99.90;;;;;;5060168;28;20193;-73
2022/08/21 06:28:15;;;;;;;4.73;1.23;;;18.30;99.90;;;;;;5094147;28;20258;-72
2022/08/21 06:30:42;;;;;;;3.77;1.10;;;18.40;99.90;;;;;;5074962;28;20176;-72
2022/08/21 06:33:10;;;;;;;1.93;1.00;;;18.30;99.90;;;;;;5078718;28;20271;-72
2022/08/21 06:35:40;;;;;;;2.83;1.27;;;18.30;99.90;;;;;;5095042;28;20642;-71
2022/08/21 06:38:09;;;;;;;4.30;1.23;;;18.30;99.90;;;;;;5095133;28;20194;-73
2022/08/21 06:40:37;;;;;;;1.30;0.97;;;18.30;99.90;;;;;;5095815;28;20187;-72
2022/08/21 06:43:10;;;;;;;5.00;0.83;;;18.20;99.90;;;;;;5094860;28;20179;-73
2022/08/21 06:45:38;;;;;;;1.47;1.00;;;18.20;99.90;;;;;;5094300;28;20190;-72
2022/08/21 06:48:09;;;;;;;1.60;0.90;;;18.20;99.90;;;;;;5063829;28;20195;-71
2022/08/21 06:50:37;;;;;;;1.50;0.90;;;18.30;99.90;;;;;;5074370;28;20278;-70
2022/08/21 06:53:11;;;;;;;5.10;1.20;;;18.30;99.90;;;;;;5074366;28;20229;-72
2022/08/21 06:55:39;;;;;;;5.73;1.23;;;18.30;99.90;;;;;;5074219;28;20251;-70
2022/08/21 06:58:08;;;;;;;2.07;0.90;;;18.30;99.90;;;;;;5075269;28;20172;-71
2022/08/21 07:00:38;;;;;;;3.90;1.17;;;18.30;99.90;;;;;;5094561;28;20180;-71
2022/08/21 07:03:05;;;;;;;5.73;0.97;;;18.20;99.90;;;;;;5093610;28;20693;-72
2022/08/21 07:05:33;;;;;;;1.80;0.90;;;18.00;99.90;;;;;;5093593;28;20219;-72
2022/08/21 07:08:00;;;;;;;4.03;1.13;;;17.90;99.90;;;;;;5077279;28;20188;-71
2022/08/21 07:10:28;;;;;;;3.43;1.20;;;17.80;99.90;;;;;;5073929;28;20263;-71
2022/08/21 07:12:56;;;;;;;5.53;1.40;;;17.70;99.90;;;;;;5073903;28;20221;-72
2022/08/21 07:15:23;;;;;;;3.73;1.83;;;17.60;99.90;;;;;;5073703;28;20219;-71
2022/08/21 07:17:51;;;;;;;3.10;1.50;;;17.40;99.90;;;;;;5083142;28;20211;-71
2022/08/21 07:20:18;;;;;;;1.87;0.90;;;17.20;99.90;;;;;;5093158;28;20183;-71
2022/08/21 07:22:46;;;;;;;4.23;1.63;;;17.10;99.90;;;;;;5094185;28;20693;-73
2022/08/21 07:25:13;;;;;;;3.47;1.40;;;16.90;99.90;;;;;;5076785;28;20187;-73
2022/08/21 07:27:41;;;;;;;6.47;3.20;;;16.70;99.90;;;;;;5075674;28;20183;-70
2022/08/21 07:30:08;;;;;;;3.20;1.67;;;16.60;99.90;;;;;;5082192;28;20228;-71
2022/08/21 07:32:36;;;;;;;2.37;1.13;;;16.50;99.90;;;;;;5088899;28;20196;-70
2022/08/21 07:35:07;;;;;;;8.97;2.10;;;16.40;99.90;;;;;;5093729;28;20716;-71
2022/08/21 07:37:34;;;;;;;4.47;1.43;;;16.40;99.90;;;;;;5091498;28;20653;-70
2022/08/21 07:40:12;;;;;;;10.30;2.57;;;16.40;99.90;;;;;;5077133;28;20215;-71
2022/08/21 07:42:45;;;;;;;7.97;2.20;;;16.40;99.90;;;;;;5055440;28;20196;-71
2022/08/21 07:45:15;;;;;;;8.93;2.47;;;16.30;99.90;;;;;;5073322;28;20262;-72
2022/08/21 07:47:42;;;;;;;5.80;2.20;;;16.20;99.90;;;;;;5073015;28;20191;-71
2022/08/21 07:50:12;;;;;;;7.33;2.10;;;16.00;99.90;;;;;;5087731;28;20187;-72
2022/08/21 07:52:41;;;;;;;9.03;2.60;;;15.90;99.90;;;;;;5092905;28;20202;-71
2022/08/21 07:55:12;;;;;;;11.10;3.33;;;15.90;99.90;;;;;;5093460;28;20219;-70
2022/08/21 07:57:39;;;;;;;9.27;2.73;;;15.90;99.90;;;;;;5076587;28;20664;-72
2022/08/21 08:00:13;;;;;;;7.67;2.73;;;15.80;99.90;;;;;;5087194;28;20219;-72
2022/08/21 08:02:44;;;;;;;8.37;2.83;;;15.80;99.90;;;;;;5093363;28;20182;-70
2022/08/21 08:05:12;;;;;;;9.03;2.40;;;15.70;99.90;;;;;;5093454;28;20194;-71
2022/08/21 08:07:40;;;;;;;8.63;2.50;;;15.70;99.90;;;;;;5093016;28;20208;-74
2022/08/21 08:10:09;;;;;;;5.57;2.30;;;15.60;99.90;;;;;;5091315;28;20709;-70
2022/08/21 08:12:38;;;;;;;5.17;2.00;;;15.50;99.90;;;;;;5093071;28;20171;-70
2022/08/21 08:15:09;;;;;;;5.63;1.70;;;15.40;99.90;;;;;;5074286;28;20247;-70
2022/08/21 08:17:38;;;;;;;4.50;2.10;;;15.40;99.90;;;;;;5074794;28;20182;-70
2022/08/21 08:20:08;;;;;;;6.03;1.87;;;15.30;99.90;;;;;;5079582;28;20279;-71
2022/08/21 08:22:37;;;;;;;5.73;1.90;;;15.30;99.90;;;;;;5072453;28;20235;-71
2022/08/21 08:25:06;;;;;;;8.40;2.07;;;15.20;99.90;;;;;;5092558;28;20666;-71
2022/08/21 08:27:34;;;;;;;8.60;2.20;;;15.10;99.90;;;;;;5092580;28;20179;-72
2022/08/21 08:30:02;;;;;;;5.80;2.10;;;15.00;99.90;;;;;;5080317;28;20636;-73
2022/08/21 08:32:29;;;;;;;8.33;2.17;;;15.00;99.90;;;;;;5054585;28;20207;-71
2022/08/21 08:34:57;;;;;;;5.30;2.13;;;14.80;99.90;;;;;;5072326;28;20235;-72
2022/08/21 08:37:24;;;;;;;7.70;2.40;;;14.70;99.90;;;;;;5072502;28;20218;-71
2022/08/21 08:39:52;;;;;;;9.87;2.73;;;14.60;99.90;;;;;;5082310;28;20297;-72
2022/08/21 08:42:31;;;;;;;7.07;2.27;;;14.60;99.90;;;;;;5085293;28;20193;-73
2022/08/21 08:45:20;;;;;;;7.17;2.50;;;14.40;99.90;;;;;;5072477;28;20683;-72
2022/08/21 08:47:57;;;;;;;7.37;2.53;;;14.20;99.90;;;;;;5090298;28;20190;-71
2022/08/21 08:50:50;;;;;;;7.73;2.13;;;14.10;99.90;;;;;;5078047;28;20556;-72
2022/08/21 08:53:24;;;;;;;5.20;2.90;;;14.00;99.90;;;;;;5072302;28;20180;-71
2022/08/21 08:55:53;;;;;;;9.00;3.00;;;13.90;99.90;;;;;;5088744;28;20194;-73
2022/08/21 08:58:37;;;;;;;5.33;2.87;;;13.80;99.90;;;;;;5092287;28;20170;-73
2022/08/21 09:01:12;;;;;;;5.60;3.37;;;13.70;99.90;;;;;;5069955;28;20273;-72
2022/08/21 09:03:40;;;;;;;10.30;3.10;;;13.60;99.90;;;;;;5072117;28;20174;-71
2022/08/21 09:06:17;;;;;;;10.47;2.67;;;13.60;99.90;;;;;;5090599;28;20187;-73
2022/08/21 09:08:58;;;;;;;9.27;2.50;;;13.70;99.90;;;;;;5092073;28;20182;-72
2022/08/21 09:11:34;;;;;;;10.47;3.20;;;13.70;99.90;;;;;;5092002;28;20188;-71
2022/08/21 09:14:23;;;;;;;9.33;2.80;;;13.70;99.90;;;;;;5090797;28;20244;-73
2022/08/21 09:16:59;;;;;;;7.60;2.83;;;13.70;99.90;;;;;;5053899;28;20190;-72
2022/08/21 09:19:53;;;;;;;12.00;3.00;;;13.70;99.90;;;;;;5071753;28;20185;-71
2022/08/21 09:22:25;;;;;;;5.33;2.67;;;13.70;99.90;;;;;;5071794;28;20178;-72
2022/08/21 09:25:22;;;;;;;9.63;2.57;;;13.60;99.90;;;;;;5079046;28;20188;-71
2022/08/21 09:27:50;;;;;;;10.27;2.63;;;13.40;99.90;;;;;;5089817;28;20282;-71
2022/08/21 09:30:21;;;;;;;5.87;2.70;;;13.30;99.90;;;;;;5091767;28;20269;-73
2022/08/21 09:32:48;;;;;;;5.20;2.73;;;13.30;99.90;;;;;;5091822;28;20594;-72
2022/08/21 09:35:23;;;;;;;9.37;3.00;;;13.20;99.90;;;;;;5077238;28;20249;-71
2022/08/21 09:37:58;;;;;;;6.27;3.00;;;13.20;99.90;;;;;;5071368;28;20643;-72
2022/08/21 09:40:31;;;;;;;7.30;2.80;;;13.20;99.90;;;;;;5071524;28;20178;-71
2022/08/21 09:43:02;;;;;;;10.47;2.90;;;13.10;99.90;;;;;;5071401;28;20253;-72
2022/08/21 09:45:30;;;;;;;7.53;3.00;;;13.00;99.90;;;;;;5084713;28;20205;-71
2022/08/21 09:48:21;;;;;;;6.37;2.77;;;12.90;99.90;;;;;;5071398;28;20190;-71
2022/08/21 09:50:49;;;;;;;5.37;3.07;;;12.90;99.90;;;;;;5071365;28;20250;-71
2022/08/21 09:53:24;;;;;;;9.17;2.90;;;12.70;99.90;;;;;;5075951;28;20213;-70
2022/08/21 09:58:49;;;;;;;5.67;2.80;;;12.60;99.90;;;;;;5091671;28;20222;-71
2022/08/21 10:01:23;;;;;;;7.77;2.97;;;12.50;99.90;;;;;;5091382;28;20183;-71
2022/08/21 10:04:04;;;;;;;6.47;2.70;;;12.50;99.90;;;;;;5088064;28;20207;-72
2022/08/21 10:06:34;;;;;;;10.80;3.67;;;12.40;99.90;;;;;;5071164;28;20185;-72
2022/08/21 10:09:09;;;;;;;5.43;3.23;;;12.40;99.90;;;;;;5071166;28;20191;-71
2022/08/21 10:11:37;;;;;;;9.60;3.13;;;12.40;99.90;;;;;;5071098;28;20327;-71
2022/08/21 10:14:04;;;;;;;7.77;3.13;;;12.30;99.90;;;;;;5071106;28;20307;-70
2022/08/21 10:16:52;;;;;;;6.90;3.00;;;12.20;99.90;;;;;;5072379;28;20254;-73
2022/08/21 10:19:42;;;;;;;7.20;2.93;;;12.10;99.90;;;;;;5071156;28;20192;-72
2022/08/21 10:22:43;;;;;;;6.33;3.50;;;12.10;99.90;;;;;;5074683;28;20263;-71
2022/08/21 10:25:29;;;;;;;7.27;2.97;;;12.10;99.90;;;;;;5091025;28;20317;-71
2022/08/21 10:28:20;;;;;;;4.93;2.57;;;12.00;99.90;;;;;;5071126;28;20211;-72
2022/08/21 10:31:19;;;;;;;8.83;2.80;;;12.00;99.90;;;;;;5070812;28;20205;-71
2022/08/21 10:34:07;;;;;;;5.87;2.20;;;12.20;99.90;;;;;;5051188;28;20226;-71
2022/08/21 10:36:58;;;;;;;6.80;2.60;;;12.30;99.90;;;;;;5071460;28;20182;-73
2022/08/21 10:39:35;;;;;;;7.33;2.77;;;12.40;99.90;;;;;;5074925;28;20315;-72
2022/08/21 10:42:28;;;;;;;10.77;2.50;;;12.40;99.90;;;;;;5083327;28;20158;-70
2022/08/21 10:45:35;;;;;;;5.10;2.23;;;12.50;99.90;;;;;;5077769;28;20226;-70
2022/08/21 10:48:12;;;;;;;6.13;2.33;;;12.50;99.90;;;;;;5056983;28;20192;-71
2022/08/21 10:51:00;;;;;;;4.47;2.33;;;12.40;99.90;;;;;;5056562;28;20186;-71
2022/08/21 10:53:34;;;;;;;4.73;2.03;;;12.50;99.90;;;;;;5074470;28;20172;-71
2022/08/21 10:56:21;;;;;;;6.30;2.07;;;12.60;99.90;;;;;;5074423;28;20176;-71
2022/08/21 10:59:25;;;;;;;5.30;1.93;;;12.60;99.90;;;;;;5074413;28;20183;-72
2022/08/21 11:02:15;;;;;;;10.07;2.40;;;12.60;99.90;;;;;;5074157;28;20260;-72
2022/08/21 11:04:51;;;;;;;4.83;2.00;;;12.70;99.90;;;;;;5074564;28;20183;-72
2022/08/21 11:07:26;;;;;;;5.87;1.80;;;12.70;99.90;;;;;;5074237;28;20174;-72
2022/08/21 11:09:58;;;;;;;12.60;2.23;;;12.60;99.90;;;;;;5074199;28;20251;-70
2022/08/21 11:12:48;;;;;;;10.73;2.30;;;12.50;99.90;;;;;;5075139;28;20181;-72
2022/08/21 11:15:27;;;;;;;6.67;2.47;;;12.60;99.90;;;;;;5083086;28;20242;-71
2022/08/21 11:18:21;;;;;;;6.60;2.73;;;12.60;99.90;;;;;;5085760;28;20196;-71
2022/08/21 11:21:01;;;;;;;8.13;2.30;;;12.60;99.90;;;;;;5075623;28;20278;-72
2022/08/21 11:23:47;;;;;;;8.43;2.67;;;12.40;99.90;;;;;;5082549;28;20172;-70
2022/08/21 11:26:39;;;;;;;8.10;2.77;;;12.30;99.90;;;;;;5093836;28;20645;-72
2022/08/21 11:29:24;;;;;;;11.33;2.13;;;12.20;99.90;;;;;;5046451;28;20559;-71
2022/08/21 11:32:29;;;;;;;9.10;2.70;;;12.20;99.90;;;;;;5093958;28;20179;-71
2022/08/21 11:35:18;;;;;;;6.53;2.33;;;12.30;99.90;;;;;;5064882;28;20673;-72
2022/08/21 11:37:58;;;;;;;6.67;2.73;;;12.30;99.90;;;;;;5082790;28;20189;-71
2022/08/21 11:40:55;;;;;;;3.67;2.00;;;12.30;99.90;;;;;;5073671;28;20182;-71
2022/08/21 11:43:45;;;;;;;5.33;2.43;;;12.30;99.90;;;;;;5073531;28;20176;-70
2022/08/21 11:46:18;;;;;;;8.23;2.00;;;12.30;99.90;;;;;;5078759;28;20190;-71
2022/08/21 11:49:10;;;;;;;9.10;2.40;;;12.30;99.90;;;;;;5078834;28;20224;-70
2022/08/21 11:51:49;;;;;;;11.30;2.37;;;12.40;99.90;;;;;;5073431;28;20226;-71
2022/08/21 11:54:43;;;;;;;8.13;2.40;;;12.40;99.90;;;;;;5073092;28;20210;-70
2022/08/21 11:57:24;;;;;;;9.00;3.53;;;12.30;99.90;;;;;;5073269;28;20700;-71
2022/08/21 12:00:11;;;;;;;7.43;2.17;;;12.30;99.90;;;;;;5073246;28;20190;-72
2022/08/21 12:02:48;;;;;;;2.80;1.77;;;12.20;99.90;;;;;;5073309;28;20185;-71
2022/08/21 12:05:55;;;;;;;8.00;1.93;;;12.20;99.90;;;;;;5073272;28;20180;-71
2022/08/21 12:08:38;;;;;;;5.97;1.63;;;12.20;99.90;;;;;;5060991;28;20265;-72
2022/08/21 12:11:25;;;;;;;6.60;1.77;;;12.10;99.90;;;;;;5073082;28;20215;-72
2022/08/21 12:14:05;;;;;;;11.73;2.53;;;12.10;99.90;;;;;;5073014;28;21002;-72
2022/08/21 12:16:34;;;;;;;6.67;1.90;;;12.00;99.90;;;;;;5073027;28;20171;-72
2022/08/21 12:19:12;;;;;;;4.17;1.50;;;12.00;99.90;;;;;;5085399;28;20214;-72
2022/08/21 12:22:00;;;;;;;6.30;1.83;;;12.00;99.90;;;;;;5093222;28;20174;-72
2022/08/21 12:24:48;;;;;;;6.73;2.17;;;11.90;99.90;;;;;;5093113;28;20175;-72
2022/08/21 12:27:15;;;;;;;8.23;2.07;;;11.90;99.90;;;;;;5067068;28;20177;-71
2022/08/21 12:29:48;;;;;;;4.90;2.10;;;11.90;99.90;;;;;;5090857;28;20271;-70
2022/08/21 12:32:16;;;;;;;5.37;1.43;;;11.90;99.90;;;;;;5092924;28;20650;-71
2022/08/21 12:34:57;;;;;;;3.27;1.70;;;11.90;99.90;;;;;;5092740;28;20230;-70
2022/08/21 12:37:27;;;;;;;5.93;1.93;;;11.90;99.90;;;;;;5074705;28;20653;-71
2022/08/21 12:39:58;;;;;;;4.93;1.70;;;11.90;99.90;;;;;;5054626;28;20236;-70
2022/08/21 12:42:41;;;;;;;5.77;2.10;;;12.00;99.90;;;;;;5072496;28;20257;-71
2022/08/21 12:45:40;;;;;;;5.53;1.67;;;12.10;99.90;;;;;;5072457;28;20220;-71
2022/08/21 12:48:18;;;;;;;6.50;1.97;;;12.10;99.90;;;;;;5087717;28;20198;-72
2022/08/21 12:50:53;;;;;;;6.27;1.80;;;12.10;99.90;;;;;;5082571;28;20683;-71
2022/08/21 12:53:51;;;;;;;2.73;1.50;;;12.00;99.90;;;;;;5072195;28;20172;-70
2022/08/21 12:56:24;;;;;;;11.00;2.87;;;11.90;99.90;;;;;;5071525;28;20267;-70
2022/08/21 12:59:04;;;;;;;6.03;2.60;;;11.80;99.90;;;;;;5080058;28;20188;-71
2022/08/21 13:01:54;;;;;;;5.03;2.40;;;11.70;99.90;;;;;;5092094;28;20174;-70
2022/08/21 13:04:38;;;;;;;4.03;2.03;;;11.50;99.90;;;;;;5092413;28;20172;-71
2022/08/21 13:07:13;;;;;;;6.93;2.13;;;11.30;99.90;;;;;;5091927;28;20193;-72
2022/08/21 13:09:49;;;;;;;5.23;2.07;;;11.10;99.90;;;;;;5076930;28;20184;-72
2022/08/21 13:12:20;;;;;;;7.60;2.50;;;10.90;99.90;;;;;;5072141;28;20227;-73
2022/08/21 13:14:50;;;;;;;6.07;2.30;;;10.80;99.90;;;;;;5072329;28;20220;-72
2022/08/21 13:17:24;;;;;;;4.17;2.10;;;10.70;99.90;;;;;;5072895;28;20182;-72
2022/08/21 13:20:02;;;;;;;6.73;2.40;;;10.60;99.90;;;;;;5089262;28;20180;-73